This is the latest recevied weather packets stored in our database for station/object KJ4EWA. If no packets are shown the sender has not sent any weather packets the latest 1 day(s).
| Time | Temp. | Humidity | Pressure | Rain* | Wind** | Luminosity | Snow |
|---|---|---|---|---|---|---|---|
| 1836274827 | 21.67° C | 99% | 1019.3 hPa | 0 mm | 0 m/s | 0 W/m² | - |
| 1836274524 | 21.67° C | 99% | 1019.3 hPa | 0 mm | 0 m/s | 0 W/m² | - |
| 1836274378 | 21.11° C | 99% | 1019.4 hPa | 0 mm | 0 m/s | 0 W/m² | - |
| 1836274223 | 21.67° C | 99% | 1019.2 hPa | 0 mm | 0 m/s | 0 W/m² | - |
| 1836273922 | 21.67° C | 99% | 1019 hPa | 0 mm | 0 m/s | 0 W/m² | - |
| 1778035786 | 18.33° C | 99% | 1017.9 hPa | 0 mm | 0 m/s | 0 W/m² | - |
| 1778035483 | 18.33° C | 99% | 1017.8 hPa | 0 mm | 0 m/s | 0 W/m² | - |
| 1778035178 | 18.89° C | 99% | 1017.8 hPa | 0 mm | 0 m/s | 0 W/m² | - |
| 1778034876 | 18.89° C | 99% | 1017.7 hPa | 0 mm | 0 m/s | 0 W/m² | - |
| 1778034572 | 18.89° C | 99% | 1017.7 hPa | 0 mm | 0 m/s | 0 W/m² | - |
| 1778034270 | 18.89° C | 99% | 1017.8 hPa | 0 mm | 0 m/s | 0 W/m² | - |
| 1778033968 | 18.89° C | 99% | 1017.8 hPa | 0 mm | 0 m/s | 0 W/m² | - |
| 1778033665 | 19.44° C | 98% | 1017.5 hPa | 0 mm | 0 m/s | 0 W/m² | - |
| 1778033362 | 19.44° C | 99% | 1017.3 hPa | 0 mm | 0 m/s | 0 W/m² | - |
| 1778033060 | 20° C | 98% | 1017.3 hPa | 0 mm | 0 m/s | 0 W/m² | - |
| 1778032756 | 20° C | 98% | 1017.3 hPa | 0 mm | 0 m/s | 0 W/m² | - |
| 1778032454 | 20° C | 98% | 1017.3 hPa | 0 mm | 0 m/s | 0 W/m² | - |
| 1778032151 | 20° C | 98% | 1017.2 hPa | 0 mm | 0 m/s | 0 W/m² | - |
| 1778031848 | 20° C | 97% | 1017.3 hPa | 0 mm | 0 m/s | 0 W/m² | - |
| 1778031544 | 20° C | 96% | 1017.2 hPa | 0 mm | 0 m/s | 0 W/m² | - |
| 1778031243 | 20° C | 96% | 1017.1 hPa | 0 mm | 0 m/s | 0 W/m² | - |
| 1778030938 | 20.56° C | 95% | 1017.4 hPa | 0 mm | 0 m/s | 0 W/m² | - |
| 1778030635 | 20.56° C | 94% | 1017.3 hPa | 0 mm | 0 m/s | 0 W/m² | - |
| 1778030332 | 20.56° C | 93% | 1017.3 hPa | 0 mm | 0 m/s | 0 W/m² | - |
| 1778030029 | 21.11° C | 93% | 1017.6 hPa | 0 mm | 0 m/s | 0 W/m² | - |
* Rain latest hour (hover to see other rain measurements)
** Current wind speed in m/s (hover to see current wind gust speed)